GVNP

Praia International Airport

Praia, Cape Verde
METAR GVNP 161700Z 02016KT 9999 FEW016 26/15 Q1014 NOSIG
Observed Flight Rules
Jan-16 @ 17:00 UTC (an hour ago) Visual Flight Rules
Wind Visibility Clouds
20° at 16 knots 10,000+ meters
  • Few at 1,600' AGL
Temperatures Readings
Current 26°C / 79°F
Dewpoint 15°C / 59°F
Humidity 51%
Altimeter 29.94" Hg
Pressure 1013.92 hPa
Elevation 70
METAR GVNP 161700Z 02016KT 9999 FEW016 26/15 Q1014 NOSIG
Observed Flight Rules
Jan-16 @ 17:00 UTC
(an hour ago)
VFR
Wind Visibility
20° at 16 knots 10,000+ meters
Clouds
  • Few at 1,600' AGL
Temperature Dewpoint
26°C / 79°F 15°C / 59°F
Humidity Altimeter Pressure
51% 29.94" Hg 1013.92 hPa